createdAt,value
2023-05-08T00:02:23.319Z,16.80
2023-05-08T00:04:50.348Z,16.80
2023-05-08T00:07:17.428Z,16.90
2023-05-08T00:09:44.502Z,16.90
2023-05-08T00:12:11.423Z,17.00
2023-05-08T00:14:38.450Z,17.10
2023-05-08T00:17:06.176Z,17.00
2023-05-08T00:19:33.284Z,17.00
2023-05-08T00:22:00.300Z,17.10
2023-05-08T00:24:27.236Z,17.10
2023-05-08T00:26:54.194Z,17.00
2023-05-08T00:29:21.193Z,17.10
2023-05-08T00:31:49.468Z,17.00
2023-05-08T00:34:16.594Z,17.10
2023-05-08T00:36:43.746Z,17.10
2023-05-08T00:39:10.774Z,17.10
2023-05-08T00:41:38.128Z,17.10
2023-05-08T00:44:05.182Z,17.00
2023-05-08T00:46:32.139Z,17.10
2023-05-08T00:49:00.161Z,17.10
2023-05-08T00:51:28.118Z,17.00
2023-05-08T00:53:55.372Z,16.90
2023-05-08T00:56:24.005Z,16.90
2023-05-08T00:58:51.368Z,17.00
2023-05-08T01:01:18.959Z,17.00
2023-05-08T01:03:47.583Z,17.10
2023-05-08T01:06:14.621Z,17.10
2023-05-08T01:08:45.482Z,17.00
2023-05-08T01:11:27.960Z,16.80
2023-05-08T01:14:22.602Z,16.80
2023-05-08T01:17:11.855Z,16.90
2023-05-08T01:20:17.988Z,16.80
2023-05-08T01:23:07.268Z,16.80
2023-05-08T01:26:11.749Z,16.90
2023-05-08T01:28:50.761Z,17.00
2023-05-08T01:31:38.934Z,16.90
2023-05-08T01:34:10.625Z,16.80
2023-05-08T01:36:46.858Z,16.70
2023-05-08T01:39:30.390Z,16.80
2023-05-08T01:42:03.614Z,16.80
2023-05-08T01:44:39.090Z,16.70
2023-05-08T01:47:09.180Z,16.70
2023-05-08T01:49:47.443Z,16.80
2023-05-08T01:52:21.326Z,16.70
2023-05-08T01:55:12.719Z,16.70
2023-05-08T01:57:45.178Z,16.70
2023-05-08T02:00:13.824Z,16.60
2023-05-08T02:02:44.004Z,16.60
2023-05-08T02:05:12.634Z,16.60
2023-05-08T02:07:41.291Z,16.50
2023-05-08T02:10:10.094Z,16.60
2023-05-08T02:12:38.999Z,16.50
2023-05-08T02:15:08.416Z,16.50
2023-05-08T02:17:38.148Z,16.50
2023-05-08T02:20:07.754Z,16.40
2023-05-08T02:22:36.509Z,16.40
2023-05-08T02:25:04.545Z,16.40
2023-05-08T02:27:32.077Z,16.50
2023-05-08T02:30:00.656Z,16.50
2023-05-08T02:32:29.961Z,16.50
2023-05-08T02:35:03.113Z,16.50
2023-05-08T02:37:31.770Z,16.50
2023-05-08T02:40:01.647Z,16.50
2023-05-08T02:42:30.462Z,16.50
2023-05-08T02:44:57.694Z,16.40
2023-05-08T02:47:29.885Z,16.30
2023-05-08T02:50:09.194Z,16.30
2023-05-08T02:52:49.331Z,16.20
2023-05-08T02:55:50.806Z,16.10
2023-05-08T02:58:29.878Z,16.20
2023-05-08T03:01:06.765Z,16.10
2023-05-08T03:03:42.163Z,16.00
2023-05-08T03:06:18.749Z,16.00
2023-05-08T03:08:48.659Z,15.90
2023-05-08T03:11:18.178Z,16.10
2023-05-08T03:13:47.079Z,16.10
2023-05-08T03:16:23.217Z,16.00
2023-05-08T03:18:59.800Z,16.00
2023-05-08T03:21:29.419Z,16.10
2023-05-08T03:24:00.658Z,16.20
2023-05-08T03:26:28.049Z,16.30
2023-05-08T03:28:56.993Z,16.20
2023-05-08T03:31:32.341Z,16.20
2023-05-08T03:34:01.078Z,16.30
2023-05-08T03:36:28.924Z,16.40
2023-05-08T03:38:56.859Z,16.50
2023-05-08T03:41:26.092Z,16.40
2023-05-08T03:43:54.937Z,16.50
2023-05-08T03:46:23.561Z,16.50
2023-05-08T03:48:51.731Z,16.20
2023-05-08T03:51:19.583Z,15.90
2023-05-08T03:53:46.691Z,15.70
2023-05-08T03:56:14.468Z,15.60
2023-05-08T03:58:54.511Z,15.90
2023-05-08T04:01:43.504Z,16.10
2023-05-08T04:04:39.827Z,16.10
2023-05-08T04:07:11.089Z,15.80
2023-05-08T04:10:05.558Z,15.60
2023-05-08T04:12:57.409Z,15.80
2023-05-08T04:15:32.097Z,15.90
2023-05-08T04:18:03.698Z,16.10
2023-05-08T04:20:33.725Z,16.30
2023-05-08T04:23:02.251Z,16.30
2023-05-08T04:25:30.982Z,16.10
2023-05-08T04:27:59.174Z,15.90
2023-05-08T04:30:28.685Z,15.90
2023-05-08T04:32:56.963Z,15.80
2023-05-08T04:35:24.442Z,15.70
2023-05-08T04:37:52.484Z,15.80
2023-05-08T04:40:19.793Z,15.80
2023-05-08T04:42:47.849Z,15.80
2023-05-08T04:45:17.689Z,15.80
2023-05-08T04:47:45.042Z,15.90
2023-05-08T04:50:12.302Z,15.80
2023-05-08T04:52:39.432Z,15.80
2023-05-08T04:55:07.538Z,15.70
2023-05-08T04:57:36.674Z,15.70
2023-05-08T05:00:06.393Z,15.90
2023-05-08T05:02:37.688Z,16.00
2023-05-08T05:05:06.294Z,16.00
2023-05-08T05:07:34.582Z,16.20
2023-05-08T05:10:02.483Z,16.40
2023-05-08T05:12:31.342Z,16.50
2023-05-08T05:14:58.728Z,16.60
2023-05-08T05:17:31.196Z,16.60
2023-05-08T05:19:58.789Z,16.70
2023-05-08T05:22:26.451Z,16.70
2023-05-08T05:24:53.479Z,16.80
2023-05-08T05:27:21.499Z,16.80
2023-05-08T05:29:49.324Z,16.80
2023-05-08T05:32:16.703Z,16.80
2023-05-08T05:34:44.323Z,16.90
2023-05-08T05:37:11.542Z,16.90
2023-05-08T05:39:38.613Z,16.90
2023-05-08T05:42:06.442Z,16.90
2023-05-08T05:44:33.620Z,17.00
2023-05-08T05:47:00.962Z,17.10
2023-05-08T05:49:28.193Z,17.10
2023-05-08T05:51:55.668Z,17.10
2023-05-08T05:54:22.956Z,17.20
2023-05-08T05:56:49.960Z,17.10
2023-05-08T05:59:17.593Z,17.10
2023-05-08T06:01:44.888Z,17.00
2023-05-08T06:04:12.068Z,17.00
2023-05-08T06:06:39.920Z,17.20
2023-05-08T06:09:07.303Z,17.20
2023-05-08T06:11:34.365Z,17.20
2023-05-08T06:14:01.334Z,17.40
2023-05-08T06:16:30.709Z,17.40
2023-05-08T06:18:57.840Z,17.50
2023-05-08T06:21:25.779Z,17.40
2023-05-08T06:23:52.784Z,17.40
2023-05-08T06:26:21.487Z,17.40
2023-05-08T06:28:49.704Z,17.20
2023-05-08T06:31:16.801Z,17.30
2023-05-08T06:33:44.063Z,17.40
2023-05-08T06:36:11.806Z,17.40
2023-05-08T06:38:38.859Z,17.40
2023-05-08T06:41:05.841Z,17.50
2023-05-08T06:43:32.899Z,17.60
2023-05-08T06:46:00.002Z,17.60
2023-05-08T06:48:29.339Z,17.60
2023-05-08T06:50:56.719Z,17.60
2023-05-08T06:53:23.734Z,17.60
2023-05-08T06:55:51.472Z,17.50
2023-05-08T06:58:18.457Z,17.50
2023-05-08T07:00:46.193Z,17.60
2023-05-08T07:03:13.306Z,17.70
2023-05-08T07:05:40.365Z,17.90
2023-05-08T07:08:07.527Z,18.00
2023-05-08T07:10:34.732Z,18.20
2023-05-08T07:13:01.776Z,18.30
2023-05-08T07:15:31.539Z,18.10
2023-05-08T07:17:59.717Z,18.00
2023-05-08T07:20:27.065Z,18.20
2023-05-08T07:22:54.233Z,18.30
2023-05-08T07:25:21.160Z,18.30
2023-05-08T07:27:48.300Z,18.50
2023-05-08T07:30:19.505Z,18.50
2023-05-08T07:32:46.700Z,18.50
2023-05-08T07:35:14.161Z,18.50
2023-05-08T07:37:42.686Z,18.40
2023-05-08T07:40:09.975Z,18.20
2023-05-08T07:42:44.212Z,18.30
2023-05-08T07:45:14.513Z,18.00
2023-05-08T07:48:11.913Z,18.00
2023-05-08T07:50:38.881Z,18.00
2023-05-08T07:53:06.627Z,18.00
2023-05-08T07:55:33.709Z,17.80
2023-05-08T07:58:00.753Z,17.80
2023-05-08T08:00:28.461Z,17.90
2023-05-08T08:02:55.573Z,17.80
2023-05-08T08:05:22.941Z,18.00
2023-05-08T08:07:53.469Z,18.00
2023-05-08T08:10:20.835Z,18.10
2023-05-08T08:12:48.002Z,18.40
2023-05-08T08:15:15.950Z,18.70
2023-05-08T08:17:43.123Z,19.00
2023-05-08T08:20:10.798Z,19.20
2023-05-08T08:22:39.159Z,19.40
2023-05-08T08:25:06.544Z,19.70
2023-05-08T08:27:33.504Z,19.80
2023-05-08T08:30:15.749Z,20.00
2023-05-08T08:32:45.892Z,20.20
2023-05-08T08:35:14.577Z,20.30
2023-05-08T08:37:42.277Z,20.50
2023-05-08T08:40:09.861Z,20.50
2023-05-08T08:42:36.926Z,20.40
2023-05-08T08:45:04.405Z,20.50
2023-05-08T08:47:38.087Z,20.40
2023-05-08T08:50:05.918Z,20.60
2023-05-08T08:52:35.632Z,20.80
2023-05-08T08:55:08.183Z,21.00
2023-05-08T08:57:39.688Z,21.00
2023-05-08T09:00:09.360Z,21.10
2023-05-08T09:02:36.579Z,20.90
2023-05-08T09:05:03.902Z,21.00
2023-05-08T09:07:33.062Z,21.10
2023-05-08T09:10:01.932Z,21.30
2023-05-08T09:12:29.052Z,21.30
2023-05-08T09:14:56.125Z,21.40
2023-05-08T09:17:23.321Z,21.40
2023-05-08T09:19:51.654Z,21.50
2023-05-08T09:22:18.785Z,21.60
2023-05-08T09:25:00.980Z,21.70
2023-05-08T09:27:29.817Z,21.80
2023-05-08T09:30:06.555Z,22.10
2023-05-08T09:32:35.987Z,22.30
2023-05-08T09:35:06.476Z,22.30
2023-05-08T09:37:37.247Z,22.20
2023-05-08T09:40:21.894Z,22.30
2023-05-08T09:42:50.552Z,22.00
2023-05-08T09:45:31.949Z,22.30
2023-05-08T09:47:59.337Z,22.70
2023-05-08T09:50:32.014Z,23.00
2023-05-08T09:52:59.186Z,23.50
2023-05-08T09:55:26.086Z,23.70
2023-05-08T09:57:58.613Z,24.10
2023-05-08T10:00:27.625Z,24.30
2023-05-08T10:03:00.150Z,24.50
2023-05-08T10:05:32.320Z,24.60
2023-05-08T10:08:17.469Z,24.70
2023-05-08T10:10:44.449Z,24.50
2023-05-08T10:13:11.956Z,23.60
2023-05-08T10:15:45.809Z,23.60
2023-05-08T10:18:16.995Z,24.00
2023-05-08T10:20:48.889Z,24.30
2023-05-08T10:23:19.231Z,24.10
2023-05-08T10:25:49.786Z,23.70
2023-05-08T10:28:43.210Z,23.30
2023-05-08T10:31:19.030Z,23.40
2023-05-08T10:33:49.708Z,23.60
2023-05-08T10:36:17.352Z,23.50
2023-05-08T10:38:46.038Z,23.30
2023-05-08T10:41:14.295Z,23.30
2023-05-08T10:43:42.970Z,23.40
2023-05-08T10:46:22.702Z,23.60
2023-05-08T10:49:04.710Z,23.40
2023-05-08T10:51:47.217Z,23.50
2023-05-08T10:54:25.240Z,23.90
2023-05-08T10:56:52.240Z,24.30
2023-05-08T10:59:20.536Z,24.60
2023-05-08T11:01:49.539Z,24.90
2023-05-08T11:04:24.740Z,24.80
2023-05-08T11:06:53.580Z,24.30
2023-05-08T11:09:30.541Z,23.90
2023-05-08T11:12:17.946Z,24.00
2023-05-08T11:14:55.628Z,23.90
2023-05-08T11:17:26.565Z,23.70
2023-05-08T11:20:00.317Z,23.90
2023-05-08T11:22:29.806Z,23.80
2023-05-08T11:25:02.253Z,24.20
2023-05-08T11:27:47.304Z,24.50
2023-05-08T11:30:36.774Z,24.80
2023-05-08T11:33:04.040Z,24.70
2023-05-08T11:35:41.918Z,24.70
2023-05-08T11:38:38.600Z,24.50
2023-05-08T11:41:07.310Z,24.20
2023-05-08T11:43:34.248Z,24.30
2023-05-08T11:46:08.688Z,24.80
2023-05-08T11:48:36.447Z,25.20
2023-05-08T11:51:04.166Z,24.80
2023-05-08T11:53:32.586Z,25.00
2023-05-08T11:56:00.681Z,25.00
2023-05-08T11:58:31.021Z,24.80
2023-05-08T12:00:58.175Z,24.70
2023-05-08T12:03:25.880Z,24.60
2023-05-08T12:05:58.065Z,24.70
2023-05-08T12:08:25.100Z,24.80
2023-05-08T12:10:57.016Z,25.00
2023-05-08T12:13:29.886Z,25.10
2023-05-08T12:16:01.272Z,25.20
2023-05-08T12:18:31.178Z,25.60
2023-05-08T12:21:01.144Z,25.90
2023-05-08T12:23:31.934Z,26.40
2023-05-08T12:26:01.560Z,26.80
2023-05-08T12:28:29.396Z,26.40
2023-05-08T12:30:56.837Z,25.50
2023-05-08T12:33:24.828Z,25.60
2023-05-08T12:35:53.266Z,25.50
2023-05-08T12:38:27.478Z,25.10
2023-05-08T12:40:56.234Z,25.30
2023-05-08T12:43:34.258Z,25.60
2023-05-08T12:46:01.823Z,25.80
2023-05-08T12:48:28.988Z,26.10
2023-05-08T12:51:03.904Z,26.60
2023-05-08T12:53:33.376Z,26.50
2023-05-08T12:56:04.706Z,27.10
2023-05-08T12:58:35.576Z,27.20
2023-05-08T13:01:13.660Z,27.60
2023-05-08T13:03:41.561Z,28.00
2023-05-08T13:06:21.221Z,29.10
2023-05-08T13:08:57.605Z,30.70
2023-05-08T13:11:34.505Z,30.90
2023-05-08T13:14:01.761Z,31.00
2023-05-08T13:16:29.255Z,30.30
2023-05-08T13:18:57.727Z,29.70
2023-05-08T13:21:26.595Z,28.60
2023-05-08T13:23:55.171Z,28.00
2023-05-08T13:26:22.168Z,27.80
2023-05-08T13:28:49.111Z,28.00
2023-05-08T13:31:16.139Z,28.70
2023-05-08T13:33:43.054Z,29.80
2023-05-08T13:36:10.311Z,30.80
2023-05-08T13:38:37.681Z,31.00
2023-05-08T13:41:04.765Z,31.60
2023-05-08T13:43:31.736Z,31.70
2023-05-08T13:45:58.804Z,31.20
2023-05-08T13:48:26.056Z,31.70
2023-05-08T13:50:53.722Z,31.60
2023-05-08T13:53:20.964Z,31.40
2023-05-08T13:55:47.980Z,31.30
2023-05-08T13:58:14.929Z,30.80
2023-05-08T14:00:42.382Z,29.20
2023-05-08T14:03:09.515Z,29.10
2023-05-08T14:05:36.518Z,29.50
2023-05-08T14:08:03.597Z,29.70
2023-05-08T14:10:30.803Z,29.80
2023-05-08T14:12:57.750Z,29.80
2023-05-08T14:15:29.169Z,30.30
2023-05-08T14:18:02.188Z,31.30
2023-05-08T14:20:29.280Z,31.70
2023-05-08T14:23:00.073Z,31.80
2023-05-08T14:25:27.730Z,32.50
2023-05-08T14:27:55.953Z,32.60
2023-05-08T14:30:24.325Z,31.70
2023-05-08T14:32:51.352Z,30.40
2023-05-08T14:35:18.697Z,30.60
2023-05-08T14:37:45.847Z,31.40
2023-05-08T14:40:12.894Z,32.20
2023-05-08T14:42:42.695Z,33.10
2023-05-08T14:45:11.075Z,33.50
2023-05-08T14:47:38.943Z,33.80
2023-05-08T14:50:06.528Z,33.30
2023-05-08T14:52:33.783Z,31.80
2023-05-08T14:55:01.242Z,30.20
2023-05-08T14:57:30.161Z,29.90
2023-05-08T14:59:57.143Z,29.70
2023-05-08T15:02:27.853Z,29.90
2023-05-08T15:05:10.783Z,29.10
2023-05-08T15:07:39.561Z,28.90
2023-05-08T15:10:08.931Z,28.60
2023-05-08T15:12:36.890Z,27.70
2023-05-08T15:15:04.688Z,27.00
2023-05-08T15:17:37.131Z,26.80
2023-05-08T15:20:05.562Z,26.60
2023-05-08T15:22:32.565Z,26.20
2023-05-08T15:25:02.785Z,26.50
2023-05-08T15:27:30.537Z,26.10
2023-05-08T15:29:58.457Z,25.60
2023-05-08T15:32:27.052Z,26.00
2023-05-08T15:34:55.000Z,26.50
2023-05-08T15:37:22.048Z,26.70
2023-05-08T15:39:50.543Z,27.10
2023-05-08T15:42:17.537Z,27.30
2023-05-08T15:47:22.177Z,26.60
2023-05-08T15:49:51.256Z,26.20
2023-05-08T15:52:18.693Z,26.20
2023-05-08T15:54:49.777Z,25.90
2023-05-08T15:57:17.359Z,25.70
2023-05-08T15:59:45.660Z,25.90
2023-05-08T16:02:12.749Z,25.90
2023-05-08T16:04:39.888Z,26.00
2023-05-08T16:07:07.333Z,26.30
2023-05-08T16:09:34.444Z,26.70
2023-05-08T16:12:01.483Z,26.90
2023-05-08T16:14:28.420Z,26.70
2023-05-08T16:16:55.735Z,27.00
2023-05-08T16:19:23.145Z,27.80
2023-05-08T16:21:51.568Z,28.40
2023-05-08T16:24:18.579Z,29.00
2023-05-08T16:26:45.625Z,29.40
2023-05-08T16:29:12.582Z,28.80
2023-05-08T16:31:39.588Z,28.40
2023-05-08T16:34:06.640Z,28.00
2023-05-08T16:36:33.640Z,27.60
2023-05-08T16:39:00.586Z,27.00
2023-05-08T16:41:28.050Z,26.40
2023-05-08T16:43:56.142Z,26.50
2023-05-08T16:46:29.854Z,26.30
2023-05-08T16:48:59.773Z,25.70
2023-05-08T16:51:27.786Z,25.20
2023-05-08T16:53:56.099Z,24.80
2023-05-08T16:56:24.989Z,24.20
2023-05-08T16:58:51.970Z,23.70
2023-05-08T17:01:19.217Z,23.50
2023-05-08T17:03:46.921Z,23.10
2023-05-08T17:06:13.964Z,23.00
2023-05-08T17:08:41.997Z,22.70
2023-05-08T17:11:09.141Z,22.40
2023-05-08T17:13:36.160Z,22.20
2023-05-08T17:16:03.190Z,22.00
2023-05-08T17:18:30.432Z,21.90
2023-05-08T17:20:59.279Z,21.70
2023-05-08T17:23:26.266Z,21.50
2023-05-08T17:26:00.699Z,21.30
2023-05-08T17:28:27.833Z,21.10
2023-05-08T17:30:55.994Z,21.00
2023-05-08T17:33:26.680Z,20.90
2023-05-08T17:35:53.846Z,20.80
2023-05-08T17:38:21.141Z,20.70
2023-05-08T17:40:48.285Z,20.90
2023-05-08T17:43:15.306Z,20.80
2023-05-08T17:45:43.821Z,20.80
2023-05-08T17:48:11.080Z,20.70
2023-05-08T17:50:42.292Z,20.70
2023-05-08T17:53:09.324Z,20.80
2023-05-08T17:55:40.963Z,20.90
2023-05-08T17:58:09.057Z,21.10
2023-05-08T18:00:37.809Z,21.00
2023-05-08T18:03:05.176Z,20.80
2023-05-08T18:05:35.419Z,20.60
2023-05-08T18:08:03.280Z,20.60
2023-05-08T18:10:30.596Z,20.70
2023-05-08T18:13:01.979Z,20.70
2023-05-08T18:15:29.211Z,20.70
2023-05-08T18:17:56.482Z,20.60
2023-05-08T18:20:23.647Z,20.30
2023-05-08T18:22:50.808Z,20.20
2023-05-08T18:25:17.971Z,20.20
2023-05-08T18:27:47.760Z,20.00
2023-05-08T18:30:17.053Z,20.00
2023-05-08T18:32:44.363Z,20.00
2023-05-08T18:35:12.239Z,20.00
2023-05-08T18:37:39.353Z,19.90
2023-05-08T18:40:07.003Z,19.80
2023-05-08T18:42:34.017Z,19.70
2023-05-08T18:45:01.287Z,19.80
2023-05-08T18:47:28.598Z,19.80
2023-05-08T18:49:57.870Z,19.80
2023-05-08T18:52:27.305Z,19.90
2023-05-08T18:54:55.143Z,19.80
2023-05-08T18:57:22.162Z,19.90
2023-05-08T18:59:49.171Z,20.00
2023-05-08T19:02:16.289Z,19.80
2023-05-08T19:04:44.668Z,19.80
2023-05-08T19:07:11.674Z,19.80
2023-05-08T19:09:44.758Z,19.80
2023-05-08T19:12:13.343Z,19.80
2023-05-08T19:14:40.594Z,19.70
2023-05-08T19:17:07.643Z,19.70
2023-05-08T19:19:34.738Z,19.60
2023-05-08T19:22:01.796Z,19.40
2023-05-08T19:24:31.954Z,19.20
2023-05-08T19:26:59.202Z,19.10
2023-05-08T19:29:27.292Z,19.00
2023-05-08T19:31:56.555Z,19.10
2023-05-08T19:34:24.208Z,19.00
2023-05-08T19:36:51.436Z,19.10
2023-05-08T19:39:19.113Z,19.20
2023-05-08T19:41:47.990Z,19.20
2023-05-08T19:44:16.322Z,19.00
2023-05-08T19:46:44.476Z,18.90
2023-05-08T19:49:14.132Z,18.80
2023-05-08T19:51:41.293Z,18.80
2023-05-08T19:54:08.430Z,18.70
2023-05-08T19:56:36.157Z,18.50
2023-05-08T19:59:03.180Z,18.40
2023-05-08T20:01:32.991Z,18.30
2023-05-08T20:04:01.003Z,18.30
2023-05-08T20:06:30.195Z,18.30
2023-05-08T20:08:57.440Z,18.20
2023-05-08T20:11:25.147Z,18.10
2023-05-08T20:13:54.083Z,18.10
2023-05-08T20:16:21.291Z,18.10
2023-05-08T20:18:48.910Z,18.10
2023-05-08T20:21:16.244Z,18.10
2023-05-08T20:23:44.022Z,18.00
2023-05-08T20:26:12.464Z,17.90
2023-05-08T20:28:40.445Z,17.80
2023-05-08T20:31:07.800Z,17.80
2023-05-08T20:33:35.060Z,17.70
2023-05-08T20:36:07.644Z,17.70
2023-05-08T20:38:36.870Z,17.50
2023-05-08T20:41:05.050Z,17.60
2023-05-08T20:43:32.359Z,17.70
2023-05-08T20:45:59.574Z,17.60
2023-05-08T20:48:27.893Z,17.50
2023-05-08T20:50:55.002Z,17.60
2023-05-08T20:53:21.976Z,17.60
2023-05-08T20:55:49.383Z,17.50
2023-05-08T20:58:16.390Z,17.40
2023-05-08T21:00:43.332Z,17.50
2023-05-08T21:03:10.370Z,17.40
2023-05-08T21:05:40.395Z,17.50
2023-05-08T21:08:08.752Z,17.50
2023-05-08T21:10:35.707Z,17.40
2023-05-08T21:13:03.551Z,17.40
2023-05-08T21:15:30.876Z,17.40
2023-05-08T21:17:58.073Z,17.30
2023-05-08T21:20:26.813Z,17.30
2023-05-08T21:22:53.873Z,17.20
2023-05-08T21:25:22.139Z,17.20
2023-05-08T21:27:50.414Z,17.30
2023-05-08T21:30:17.593Z,17.20
2023-05-08T21:32:45.733Z,17.10
2023-05-08T21:35:13.929Z,17.00
2023-05-08T21:37:41.146Z,17.20
2023-05-08T21:40:09.524Z,17.20
2023-05-08T21:42:36.884Z,17.30
2023-05-08T21:45:04.045Z,17.40
2023-05-08T21:47:31.045Z,17.40
2023-05-08T21:49:58.073Z,17.30
2023-05-08T21:52:27.469Z,17.30
2023-05-08T21:54:54.451Z,17.30
2023-05-08T21:57:21.619Z,17.30
2023-05-08T21:59:52.539Z,17.30
2023-05-08T22:02:20.146Z,17.30
2023-05-08T22:04:47.234Z,17.40
2023-05-08T22:07:22.046Z,17.40
2023-05-08T22:09:51.685Z,17.50
2023-05-08T22:12:19.024Z,17.40
2023-05-08T22:14:45.930Z,17.30
2023-05-08T22:17:13.177Z,17.20
2023-05-08T22:19:40.120Z,17.20
2023-05-08T22:22:07.424Z,17.20
2023-05-08T22:24:34.433Z,17.20
2023-05-08T22:27:01.449Z,17.30
2023-05-08T22:29:28.337Z,17.30
2023-05-08T22:31:56.158Z,17.20
2023-05-08T22:34:23.229Z,17.20
2023-05-08T22:36:50.256Z,17.20
2023-05-08T22:39:17.250Z,17.20
2023-05-08T22:41:44.330Z,17.20
2023-05-08T22:44:11.349Z,17.20
2023-05-08T22:46:38.911Z,17.20
2023-05-08T22:49:06.186Z,17.30
2023-05-08T22:51:33.358Z,17.20
2023-05-08T22:54:00.430Z,17.20
2023-05-08T22:56:27.478Z,17.10
2023-05-08T22:58:55.308Z,17.00
2023-05-08T23:01:22.934Z,17.00
2023-05-08T23:03:54.228Z,17.00
2023-05-08T23:06:21.554Z,16.90
2023-05-08T23:08:48.738Z,16.90
2023-05-08T23:11:15.926Z,16.90
2023-05-08T23:13:42.960Z,16.90
2023-05-08T23:16:09.908Z,16.80
2023-05-08T23:18:36.965Z,16.90
2023-05-08T23:21:08.137Z,16.90
2023-05-08T23:23:36.688Z,16.90
2023-05-08T23:26:05.455Z,16.80
2023-05-08T23:28:36.040Z,16.80
2023-05-08T23:31:03.944Z,16.80
2023-05-08T23:33:31.096Z,16.80
2023-05-08T23:35:59.606Z,16.80
2023-05-08T23:38:27.866Z,16.90
2023-05-08T23:40:54.992Z,16.90
2023-05-08T23:43:21.935Z,16.70
2023-05-08T23:45:49.407Z,16.70
2023-05-08T23:48:17.133Z,16.60
2023-05-08T23:50:44.164Z,16.50
2023-05-08T23:53:13.184Z,16.60
2023-05-08T23:55:40.220Z,16.50
2023-05-08T23:58:07.637Z,16.50
